sensor_id;sensor_type;location;lat;lon;timestamp;P1;durP1;ratioP1;P2;durP2;ratioP2
65230;SDS011;51813;40.666;16.602;2023-05-16T00:00:06;17.98;;;5.20;;
65230;SDS011;51813;40.666;16.602;2023-05-16T00:02:36;15.27;;;4.32;;
65230;SDS011;51813;40.666;16.602;2023-05-16T00:05:03;14.85;;;5.05;;
65230;SDS011;51813;40.666;16.602;2023-05-16T00:07:30;15.18;;;4.70;;
65230;SDS011;51813;40.666;16.602;2023-05-16T00:09:56;16.15;;;4.30;;
65230;SDS011;51813;40.666;16.602;2023-05-16T00:12:22;12.05;;;4.40;;
65230;SDS011;51813;40.666;16.602;2023-05-16T00:14:48;14.38;;;4.65;;
65230;SDS011;51813;40.666;16.602;2023-05-16T00:17:15;12.38;;;4.18;;
65230;SDS011;51813;40.666;16.602;2023-05-16T00:19:41;14.70;;;5.32;;
65230;SDS011;51813;40.666;16.602;2023-05-16T00:22:08;18.52;;;4.60;;
65230;SDS011;51813;40.666;16.602;2023-05-16T00:24:35;12.90;;;4.95;;
65230;SDS011;51813;40.666;16.602;2023-05-16T00:27:01;12.45;;;4.40;;
65230;SDS011;51813;40.666;16.602;2023-05-16T00:29:28;16.13;;;4.72;;
65230;SDS011;51813;40.666;16.602;2023-05-16T00:31:55;14.32;;;4.68;;
65230;SDS011;51813;40.666;16.602;2023-05-16T00:34:21;14.38;;;4.63;;
65230;SDS011;51813;40.666;16.602;2023-05-16T00:36:48;13.35;;;4.53;;
65230;SDS011;51813;40.666;16.602;2023-05-16T00:39:14;16.60;;;4.47;;
65230;SDS011;51813;40.666;16.602;2023-05-16T00:41:40;15.23;;;4.60;;
65230;SDS011;51813;40.666;16.602;2023-05-16T00:44:06;17.42;;;4.40;;
65230;SDS011;51813;40.666;16.602;2023-05-16T00:46:32;14.98;;;4.30;;
65230;SDS011;51813;40.666;16.602;2023-05-16T00:48:58;12.60;;;4.38;;
65230;SDS011;51813;40.666;16.602;2023-05-16T00:51:24;15.20;;;5.20;;
65230;SDS011;51813;40.666;16.602;2023-05-16T00:53:50;12.77;;;5.47;;
65230;SDS011;51813;40.666;16.602;2023-05-16T00:56:15;17.52;;;4.68;;
65230;SDS011;51813;40.666;16.602;2023-05-16T00:58:42;12.60;;;4.50;;
65230;SDS011;51813;40.666;16.602;2023-05-16T01:01:08;10.38;;;4.15;;
65230;SDS011;51813;40.666;16.602;2023-05-16T01:03:34;14.50;;;4.30;;
65230;SDS011;51813;40.666;16.602;2023-05-16T01:06:00;12.70;;;4.95;;
65230;SDS011;51813;40.666;16.602;2023-05-16T01:08:26;13.27;;;4.38;;
65230;SDS011;51813;40.666;16.602;2023-05-16T01:19:38;12.82;;;4.90;;
65230;SDS011;51813;40.666;16.602;2023-05-16T01:28:04;13.88;;;4.75;;
65230;SDS011;51813;40.666;16.602;2023-05-16T01:30:34;12.65;;;4.05;;
65230;SDS011;51813;40.666;16.602;2023-05-16T01:33:02;16.17;;;4.93;;
65230;SDS011;51813;40.666;16.602;2023-05-16T01:35:27;13.45;;;5.07;;
65230;SDS011;51813;40.666;16.602;2023-05-16T01:40:37;16.25;;;4.05;;
65230;SDS011;51813;40.666;16.602;2023-05-16T01:43:19;12.55;;;4.57;;
65230;SDS011;51813;40.666;16.602;2023-05-16T01:45:52;11.40;;;3.88;;
65230;SDS011;51813;40.666;16.602;2023-05-16T01:48:26;11.38;;;3.95;;
65230;SDS011;51813;40.666;16.602;2023-05-16T01:50:55;12.50;;;4.07;;
65230;SDS011;51813;40.666;16.602;2023-05-16T01:53:27;12.38;;;3.95;;
65230;SDS011;51813;40.666;16.602;2023-05-16T01:55:59;13.35;;;4.20;;
65230;SDS011;51813;40.666;16.602;2023-05-16T01:58:27;11.23;;;4.13;;
65230;SDS011;51813;40.666;16.602;2023-05-16T02:00:59;12.23;;;3.97;;
65230;SDS011;51813;40.666;16.602;2023-05-16T02:03:29;9.35;;;3.95;;
65230;SDS011;51813;40.666;16.602;2023-05-16T02:05:55;10.95;;;4.40;;
65230;SDS011;51813;40.666;16.602;2023-05-16T02:08:22;9.40;;;3.58;;
65230;SDS011;51813;40.666;16.602;2023-05-16T02:10:48;10.23;;;3.78;;
65230;SDS011;51813;40.666;16.602;2023-05-16T02:13:15;10.55;;;3.17;;
65230;SDS011;51813;40.666;16.602;2023-05-16T02:15:41;10.43;;;3.35;;
65230;SDS011;51813;40.666;16.602;2023-05-16T02:18:06;10.65;;;3.67;;
65230;SDS011;51813;40.666;16.602;2023-05-16T02:20:33;10.18;;;3.97;;
65230;SDS011;51813;40.666;16.602;2023-05-16T02:22:59;9.65;;;3.60;;
65230;SDS011;51813;40.666;16.602;2023-05-16T02:25:25;11.32;;;3.70;;
65230;SDS011;51813;40.666;16.602;2023-05-16T02:27:50;9.70;;;3.53;;
65230;SDS011;51813;40.666;16.602;2023-05-16T02:30:16;7.13;;;3.10;;
65230;SDS011;51813;40.666;16.602;2023-05-16T02:32:42;7.78;;;3.35;;
65230;SDS011;51813;40.666;16.602;2023-05-16T02:35:09;8.30;;;3.17;;
65230;SDS011;51813;40.666;16.602;2023-05-16T02:37:35;11.63;;;3.08;;
65230;SDS011;51813;40.666;16.602;2023-05-16T02:40:01;10.50;;;3.35;;
65230;SDS011;51813;40.666;16.602;2023-05-16T02:42:29;9.50;;;2.78;;
65230;SDS011;51813;40.666;16.602;2023-05-16T02:44:56;6.90;;;2.83;;
65230;SDS011;51813;40.666;16.602;2023-05-16T02:47:21;9.32;;;2.75;;
65230;SDS011;51813;40.666;16.602;2023-05-16T02:49:47;7.93;;;2.85;;
65230;SDS011;51813;40.666;16.602;2023-05-16T02:52:13;9.38;;;3.30;;
65230;SDS011;51813;40.666;16.602;2023-05-16T02:54:39;9.15;;;2.85;;
65230;SDS011;51813;40.666;16.602;2023-05-16T02:57:04;7.03;;;2.60;;
65230;SDS011;51813;40.666;16.602;2023-05-16T02:59:30;5.97;;;2.60;;
65230;SDS011;51813;40.666;16.602;2023-05-16T03:01:56;8.15;;;2.97;;
65230;SDS011;51813;40.666;16.602;2023-05-16T03:04:21;7.55;;;3.08;;
65230;SDS011;51813;40.666;16.602;2023-05-16T03:06:47;6.30;;;2.63;;
65230;SDS011;51813;40.666;16.602;2023-05-16T03:09:15;8.88;;;2.50;;
65230;SDS011;51813;40.666;16.602;2023-05-16T03:11:41;9.02;;;2.95;;
65230;SDS011;51813;40.666;16.602;2023-05-16T03:14:06;6.57;;;2.58;;
65230;SDS011;51813;40.666;16.602;2023-05-16T03:16:32;6.65;;;2.28;;
65230;SDS011;51813;40.666;16.602;2023-05-16T03:18:58;5.45;;;2.28;;
65230;SDS011;51813;40.666;16.602;2023-05-16T03:21:23;7.68;;;2.70;;
65230;SDS011;51813;40.666;16.602;2023-05-16T03:23:50;6.93;;;2.38;;
65230;SDS011;51813;40.666;16.602;2023-05-16T03:26:15;6.03;;;2.33;;
65230;SDS011;51813;40.666;16.602;2023-05-16T03:28:41;8.00;;;2.45;;
65230;SDS011;51813;40.666;16.602;2023-05-16T03:31:06;10.65;;;2.58;;
65230;SDS011;51813;40.666;16.602;2023-05-16T03:33:32;7.22;;;2.20;;
65230;SDS011;51813;40.666;16.602;2023-05-16T03:35:58;7.45;;;2.50;;
65230;SDS011;51813;40.666;16.602;2023-05-16T03:38:23;9.27;;;2.65;;
65230;SDS011;51813;40.666;16.602;2023-05-16T03:40:49;5.65;;;2.00;;
65230;SDS011;51813;40.666;16.602;2023-05-16T03:43:15;6.97;;;2.22;;
65230;SDS011;51813;40.666;16.602;2023-05-16T03:45:41;7.28;;;2.00;;
65230;SDS011;51813;40.666;16.602;2023-05-16T03:48:07;4.57;;;1.90;;
65230;SDS011;51813;40.666;16.602;2023-05-16T03:50:33;6.82;;;2.00;;
65230;SDS011;51813;40.666;16.602;2023-05-16T03:53:01;5.25;;;1.70;;
65230;SDS011;51813;40.666;16.602;2023-05-16T03:55:27;5.15;;;1.90;;
65230;SDS011;51813;40.666;16.602;2023-05-16T03:57:54;6.53;;;2.05;;
65230;SDS011;51813;40.666;16.602;2023-05-16T04:00:20;6.25;;;1.90;;
65230;SDS011;51813;40.666;16.602;2023-05-16T04:02:46;5.13;;;1.90;;
65230;SDS011;51813;40.666;16.602;2023-05-16T04:05:12;5.05;;;1.60;;
65230;SDS011;51813;40.666;16.602;2023-05-16T04:07:38;4.30;;;2.10;;
65230;SDS011;51813;40.666;16.602;2023-05-16T04:10:04;4.15;;;1.80;;
65230;SDS011;51813;40.666;16.602;2023-05-16T04:12:31;5.93;;;1.88;;
65230;SDS011;51813;40.666;16.602;2023-05-16T04:14:56;7.47;;;1.98;;
65230;SDS011;51813;40.666;16.602;2023-05-16T04:17:22;6.28;;;2.17;;
65230;SDS011;51813;40.666;16.602;2023-05-16T04:19:48;5.40;;;1.70;;
65230;SDS011;51813;40.666;16.602;2023-05-16T04:22:13;7.32;;;1.90;;
65230;SDS011;51813;40.666;16.602;2023-05-16T04:24:39;3.97;;;1.60;;
65230;SDS011;51813;40.666;16.602;2023-05-16T04:27:06;3.65;;;1.58;;
65230;SDS011;51813;40.666;16.602;2023-05-16T04:29:35;4.93;;;1.70;;
65230;SDS011;51813;40.666;16.602;2023-05-16T04:32:01;3.55;;;1.50;;
65230;SDS011;51813;40.666;16.602;2023-05-16T04:34:27;5.85;;;1.70;;
65230;SDS011;51813;40.666;16.602;2023-05-16T04:36:53;4.78;;;1.60;;
65230;SDS011;51813;40.666;16.602;2023-05-16T04:39:19;6.68;;;1.80;;
65230;SDS011;51813;40.666;16.602;2023-05-16T04:41:45;4.47;;;1.73;;
65230;SDS011;51813;40.666;16.602;2023-05-16T04:44:11;5.82;;;1.90;;
65230;SDS011;51813;40.666;16.602;2023-05-16T04:46:36;6.05;;;1.60;;
65230;SDS011;51813;40.666;16.602;2023-05-16T04:49:02;4.75;;;1.52;;
65230;SDS011;51813;40.666;16.602;2023-05-16T04:51:28;5.55;;;1.60;;
65230;SDS011;51813;40.666;16.602;2023-05-16T04:53:55;5.32;;;1.77;;
65230;SDS011;51813;40.666;16.602;2023-05-16T04:56:21;5.30;;;1.60;;
65230;SDS011;51813;40.666;16.602;2023-05-16T04:58:46;4.40;;;1.40;;
65230;SDS011;51813;40.666;16.602;2023-05-16T05:01:12;5.38;;;1.67;;
65230;SDS011;51813;40.666;16.602;2023-05-16T05:03:38;3.90;;;1.35;;
65230;SDS011;51813;40.666;16.602;2023-05-16T05:06:03;3.75;;;1.42;;
65230;SDS011;51813;40.666;16.602;2023-05-16T05:08:29;2.90;;;1.25;;
65230;SDS011;51813;40.666;16.602;2023-05-16T05:10:55;3.20;;;1.25;;
65230;SDS011;51813;40.666;16.602;2023-05-16T05:13:21;5.68;;;1.83;;
65230;SDS011;51813;40.666;16.602;2023-05-16T05:15:48;4.80;;;1.55;;
65230;SDS011;51813;40.666;16.602;2023-05-16T05:18:16;4.88;;;1.50;;
65230;SDS011;51813;40.666;16.602;2023-05-16T05:20:42;3.63;;;1.25;;
65230;SDS011;51813;40.666;16.602;2023-05-16T05:23:08;4.60;;;1.60;;
65230;SDS011;51813;40.666;16.602;2023-05-16T05:25:34;4.35;;;1.35;;
65230;SDS011;51813;40.666;16.602;2023-05-16T05:28:01;4.57;;;1.55;;
65230;SDS011;51813;40.666;16.602;2023-05-16T05:30:26;4.10;;;1.13;;
65230;SDS011;51813;40.666;16.602;2023-05-16T05:32:52;4.88;;;1.60;;
65230;SDS011;51813;40.666;16.602;2023-05-16T05:35:19;3.67;;;1.50;;
65230;SDS011;51813;40.666;16.602;2023-05-16T05:37:45;4.22;;;1.38;;
65230;SDS011;51813;40.666;16.602;2023-05-16T05:40:10;6.05;;;1.58;;
65230;SDS011;51813;40.666;16.602;2023-05-16T05:42:36;3.53;;;1.20;;
65230;SDS011;51813;40.666;16.602;2023-05-16T05:45:02;2.85;;;1.38;;
65230;SDS011;51813;40.666;16.602;2023-05-16T05:47:28;4.55;;;1.40;;
65230;SDS011;51813;40.666;16.602;2023-05-16T05:49:54;4.72;;;1.70;;
65230;SDS011;51813;40.666;16.602;2023-05-16T05:52:20;4.55;;;1.30;;
65230;SDS011;51813;40.666;16.602;2023-05-16T05:54:46;6.35;;;1.60;;
65230;SDS011;51813;40.666;16.602;2023-05-16T05:57:12;4.93;;;1.63;;
65230;SDS011;51813;40.666;16.602;2023-05-16T05:59:38;5.90;;;1.40;;
65230;SDS011;51813;40.666;16.602;2023-05-16T06:02:03;3.17;;;1.38;;
65230;SDS011;51813;40.666;16.602;2023-05-16T06:04:29;4.72;;;1.45;;
65230;SDS011;51813;40.666;16.602;2023-05-16T06:06:55;4.53;;;1.50;;
65230;SDS011;51813;40.666;16.602;2023-05-16T06:09:21;3.80;;;1.20;;
65230;SDS011;51813;40.666;16.602;2023-05-16T06:11:46;6.25;;;1.70;;
65230;SDS011;51813;40.666;16.602;2023-05-16T06:14:13;4.07;;;1.70;;
65230;SDS011;51813;40.666;16.602;2023-05-16T06:16:39;5.95;;;1.38;;
65230;SDS011;51813;40.666;16.602;2023-05-16T06:19:05;4.07;;;1.60;;
65230;SDS011;51813;40.666;16.602;2023-05-16T06:21:31;7.28;;;2.13;;
65230;SDS011;51813;40.666;16.602;2023-05-16T06:23:57;5.40;;;1.48;;
65230;SDS011;51813;40.666;16.602;2023-05-16T06:26:23;7.70;;;1.75;;
65230;SDS011;51813;40.666;16.602;2023-05-16T06:28:48;5.78;;;1.95;;
65230;SDS011;51813;40.666;16.602;2023-05-16T06:31:14;4.30;;;1.73;;
65230;SDS011;51813;40.666;16.602;2023-05-16T06:33:40;4.38;;;1.92;;
65230;SDS011;51813;40.666;16.602;2023-05-16T06:36:06;6.05;;;1.77;;
65230;SDS011;51813;40.666;16.602;2023-05-16T06:38:31;5.18;;;1.58;;
65230;SDS011;51813;40.666;16.602;2023-05-16T06:40:57;5.30;;;1.70;;
65230;SDS011;51813;40.666;16.602;2023-05-16T06:43:23;7.18;;;1.70;;
65230;SDS011;51813;40.666;16.602;2023-05-16T06:45:49;5.15;;;1.70;;
65230;SDS011;51813;40.666;16.602;2023-05-16T06:48:16;7.53;;;2.00;;
65230;SDS011;51813;40.666;16.602;2023-05-16T06:50:45;6.80;;;2.35;;
65230;SDS011;51813;40.666;16.602;2023-05-16T06:53:17;6.78;;;2.38;;
65230;SDS011;51813;40.666;16.602;2023-05-16T06:55:43;7.85;;;2.17;;
65230;SDS011;51813;40.666;16.602;2023-05-16T06:58:10;7.40;;;1.92;;
65230;SDS011;51813;40.666;16.602;2023-05-16T07:00:36;6.53;;;2.25;;
65230;SDS011;51813;40.666;16.602;2023-05-16T07:03:02;6.72;;;2.10;;
65230;SDS011;51813;40.666;16.602;2023-05-16T07:05:28;8.93;;;2.30;;
65230;SDS011;51813;40.666;16.602;2023-05-16T07:07:54;6.30;;;3.20;;
65230;SDS011;51813;40.666;16.602;2023-05-16T07:10:20;6.85;;;2.17;;
65230;SDS011;51813;40.666;16.602;2023-05-16T07:12:46;8.38;;;3.28;;
65230;SDS011;51813;40.666;16.602;2023-05-16T07:15:12;8.30;;;3.35;;
65230;SDS011;51813;40.666;16.602;2023-05-16T07:17:38;7.80;;;2.90;;
65230;SDS011;51813;40.666;16.602;2023-05-16T07:20:04;11.77;;;3.05;;
65230;SDS011;51813;40.666;16.602;2023-05-16T07:22:32;10.32;;;3.78;;
65230;SDS011;51813;40.666;16.602;2023-05-16T07:24:58;8.98;;;3.00;;
65230;SDS011;51813;40.666;16.602;2023-05-16T07:27:25;11.30;;;3.28;;
65230;SDS011;51813;40.666;16.602;2023-05-16T07:29:52;11.35;;;3.17;;
65230;SDS011;51813;40.666;16.602;2023-05-16T07:32:18;19.20;;;4.60;;
65230;SDS011;51813;40.666;16.602;2023-05-16T07:34:44;16.30;;;4.63;;
65230;SDS011;51813;40.666;16.602;2023-05-16T07:37:10;46.08;;;15.43;;
65230;SDS011;51813;40.666;16.602;2023-05-16T07:39:39;19.50;;;5.10;;
65230;SDS011;51813;40.666;16.602;2023-05-16T07:42:06;24.58;;;7.88;;
65230;SDS011;51813;40.666;16.602;2023-05-16T07:44:32;22.33;;;7.20;;
65230;SDS011;51813;40.666;16.602;2023-05-16T07:46:58;34.55;;;8.80;;
65230;SDS011;51813;40.666;16.602;2023-05-16T07:49:24;40.17;;;10.48;;
65230;SDS011;51813;40.666;16.602;2023-05-16T07:51:50;32.90;;;10.95;;
65230;SDS011;51813;40.666;16.602;2023-05-16T07:54:16;29.35;;;9.50;;
65230;SDS011;51813;40.666;16.602;2023-05-16T07:56:41;32.42;;;9.75;;
65230;SDS011;51813;40.666;16.602;2023-05-16T07:59:07;21.08;;;7.40;;
65230;SDS011;51813;40.666;16.602;2023-05-16T08:01:33;24.13;;;8.65;;
65230;SDS011;51813;40.666;16.602;2023-05-16T08:03:59;20.67;;;7.05;;
65230;SDS011;51813;40.666;16.602;2023-05-16T08:06:25;18.65;;;6.53;;
65230;SDS011;51813;40.666;16.602;2023-05-16T08:08:51;15.52;;;6.32;;
65230;SDS011;51813;40.666;16.602;2023-05-16T08:11:17;11.70;;;4.75;;
65230;SDS011;51813;40.666;16.602;2023-05-16T08:13:46;13.90;;;4.50;;
65230;SDS011;51813;40.666;16.602;2023-05-16T08:16:12;9.00;;;3.58;;
65230;SDS011;51813;40.666;16.602;2023-05-16T08:18:38;11.70;;;3.90;;
65230;SDS011;51813;40.666;16.602;2023-05-16T08:21:04;28.77;;;8.82;;
65230;SDS011;51813;40.666;16.602;2023-05-16T08:23:29;74.80;;;13.65;;
65230;SDS011;51813;40.666;16.602;2023-05-16T08:25:55;31.75;;;13.20;;
65230;SDS011;51813;40.666;16.602;2023-05-16T08:28:22;66.90;;;14.50;;
65230;SDS011;51813;40.666;16.602;2023-05-16T08:30:48;44.35;;;15.20;;
65230;SDS011;51813;40.666;16.602;2023-05-16T08:33:14;23.65;;;7.60;;
65230;SDS011;51813;40.666;16.602;2023-05-16T08:35:43;23.70;;;7.32;;
65230;SDS011;51813;40.666;16.602;2023-05-16T08:38:10;60.28;;;9.75;;
65230;SDS011;51813;40.666;16.602;2023-05-16T08:40:36;25.42;;;6.85;;
65230;SDS011;51813;40.666;16.602;2023-05-16T08:43:01;28.27;;;7.40;;
65230;SDS011;51813;40.666;16.602;2023-05-16T08:45:28;27.13;;;6.32;;
65230;SDS011;51813;40.666;16.602;2023-05-16T08:47:55;19.73;;;4.25;;
65230;SDS011;51813;40.666;16.602;2023-05-16T08:50:21;16.65;;;4.78;;
65230;SDS011;51813;40.666;16.602;2023-05-16T08:52:50;110.88;;;38.58;;
65230;SDS011;51813;40.666;16.602;2023-05-16T08:55:18;63.33;;;26.77;;
65230;SDS011;51813;40.666;16.602;2023-05-16T08:57:47;127.97;;;44.40;;
65230;SDS011;51813;40.666;16.602;2023-05-16T09:00:16;28.85;;;11.27;;
65230;SDS011;51813;40.666;16.602;2023-05-16T09:02:43;57.80;;;12.98;;
65230;SDS011;51813;40.666;16.602;2023-05-16T09:05:10;21.63;;;10.77;;
65230;SDS011;51813;40.666;16.602;2023-05-16T09:07:37;28.42;;;11.20;;
65230;SDS011;51813;40.666;16.602;2023-05-16T09:10:03;30.83;;;13.07;;
65230;SDS011;51813;40.666;16.602;2023-05-16T09:12:31;28.67;;;11.55;;
65230;SDS011;51813;40.666;16.602;2023-05-16T09:14:57;23.45;;;10.82;;
65230;SDS011;51813;40.666;16.602;2023-05-16T09:17:24;23.52;;;11.05;;
65230;SDS011;51813;40.666;16.602;2023-05-16T09:19:50;23.30;;;8.93;;
65230;SDS011;51813;40.666;16.602;2023-05-16T09:22:20;18.65;;;8.77;;
65230;SDS011;51813;40.666;16.602;2023-05-16T09:24:48;17.45;;;7.60;;
65230;SDS011;51813;40.666;16.602;2023-05-16T09:27:14;21.08;;;8.35;;
65230;SDS011;51813;40.666;16.602;2023-05-16T09:29:43;16.55;;;7.72;;
65230;SDS011;51813;40.666;16.602;2023-05-16T09:32:15;12.75;;;6.63;;
65230;SDS011;51813;40.666;16.602;2023-05-16T09:34:45;16.42;;;6.25;;
65230;SDS011;51813;40.666;16.602;2023-05-16T09:37:15;9.13;;;5.85;;
65230;SDS011;51813;40.666;16.602;2023-05-16T09:39:48;10.05;;;5.03;;
65230;SDS011;51813;40.666;16.602;2023-05-16T09:42:16;9.18;;;3.83;;
65230;SDS011;51813;40.666;16.602;2023-05-16T09:44:53;9.80;;;4.00;;
65230;SDS011;51813;40.666;16.602;2023-05-16T09:47:20;5.25;;;3.05;;
65230;SDS011;51813;40.666;16.602;2023-05-16T09:49:50;7.25;;;3.25;;
65230;SDS011;51813;40.666;16.602;2023-05-16T09:52:17;5.50;;;2.90;;
65230;SDS011;51813;40.666;16.602;2023-05-16T09:54:44;7.68;;;2.80;;
65230;SDS011;51813;40.666;16.602;2023-05-16T09:57:16;6.68;;;2.30;;
65230;SDS011;51813;40.666;16.602;2023-05-16T09:59:43;6.15;;;2.72;;
65230;SDS011;51813;40.666;16.602;2023-05-16T10:02:10;7.07;;;2.60;;
65230;SDS011;51813;40.666;16.602;2023-05-16T10:04:37;6.47;;;2.45;;
65230;SDS011;51813;40.666;16.602;2023-05-16T10:07:04;4.68;;;2.20;;
65230;SDS011;51813;40.666;16.602;2023-05-16T10:09:31;6.07;;;1.98;;
65230;SDS011;51813;40.666;16.602;2023-05-16T10:11:57;5.03;;;2.42;;
65230;SDS011;51813;40.666;16.602;2023-05-16T10:14:33;3.75;;;2.20;;
65230;SDS011;51813;40.666;16.602;2023-05-16T10:17:01;4.40;;;1.90;;
65230;SDS011;51813;40.666;16.602;2023-05-16T10:19:30;4.53;;;1.92;;
65230;SDS011;51813;40.666;16.602;2023-05-16T10:21:57;5.10;;;1.90;;
65230;SDS011;51813;40.666;16.602;2023-05-16T10:24:28;5.50;;;1.90;;
65230;SDS011;51813;40.666;16.602;2023-05-16T10:27:13;4.32;;;2.13;;
65230;SDS011;51813;40.666;16.602;2023-05-16T10:29:39;3.33;;;1.88;;
65230;SDS011;51813;40.666;16.602;2023-05-16T10:32:07;6.47;;;1.95;;
65230;SDS011;51813;40.666;16.602;2023-05-16T10:34:33;4.70;;;1.55;;
65230;SDS011;51813;40.666;16.602;2023-05-16T10:37:00;5.05;;;1.70;;
65230;SDS011;51813;40.666;16.602;2023-05-16T10:39:26;2.72;;;1.38;;
65230;SDS011;51813;40.666;16.602;2023-05-16T10:41:53;2.90;;;1.58;;
65230;SDS011;51813;40.666;16.602;2023-05-16T10:44:19;3.58;;;1.48;;
65230;SDS011;51813;40.666;16.602;2023-05-16T10:46:45;2.45;;;1.35;;
65230;SDS011;51813;40.666;16.602;2023-05-16T10:49:18;3.55;;;1.50;;
65230;SDS011;51813;40.666;16.602;2023-05-16T10:51:45;5.55;;;1.33;;
65230;SDS011;51813;40.666;16.602;2023-05-16T10:54:34;4.10;;;1.50;;
65230;SDS011;51813;40.666;16.602;2023-05-16T10:59:57;3.78;;;1.50;;
65230;SDS011;51813;40.666;16.602;2023-05-16T11:02:29;4.53;;;1.48;;
65230;SDS011;51813;40.666;16.602;2023-05-16T11:04:59;2.65;;;1.30;;
65230;SDS011;51813;40.666;16.602;2023-05-16T11:07:32;4.13;;;1.05;;
65230;SDS011;51813;40.666;16.602;2023-05-16T11:17:48;3.75;;;1.40;;
65230;SDS011;51813;40.666;16.602;2023-05-16T11:20:24;3.22;;;1.20;;
65230;SDS011;51813;40.666;16.602;2023-05-16T11:22:51;2.80;;;1.20;;
65230;SDS011;51813;40.666;16.602;2023-05-16T11:25:46;3.22;;;1.33;;
65230;SDS011;51813;40.666;16.602;2023-05-16T11:28:15;3.50;;;1.02;;
65230;SDS011;51813;40.666;16.602;2023-05-16T11:30:44;3.15;;;1.15;;
65230;SDS011;51813;40.666;16.602;2023-05-16T11:33:13;3.08;;;1.33;;
65230;SDS011;51813;40.666;16.602;2023-05-16T11:35:38;3.22;;;0.90;;
65230;SDS011;51813;40.666;16.602;2023-05-16T11:38:04;4.05;;;1.08;;
65230;SDS011;51813;40.666;16.602;2023-05-16T11:40:30;1.80;;;0.98;;
65230;SDS011;51813;40.666;16.602;2023-05-16T11:42:58;4.20;;;1.02;;
65230;SDS011;51813;40.666;16.602;2023-05-16T11:45:27;3.28;;;1.05;;
65230;SDS011;51813;40.666;16.602;2023-05-16T11:47:53;2.35;;;0.95;;
65230;SDS011;51813;40.666;16.602;2023-05-16T11:50:19;2.03;;;0.93;;
65230;SDS011;51813;40.666;16.602;2023-05-16T11:52:51;2.50;;;0.95;;
65230;SDS011;51813;40.666;16.602;2023-05-16T11:55:19;3.47;;;0.95;;
65230;SDS011;51813;40.666;16.602;2023-05-16T11:57:47;2.95;;;1.10;;
65230;SDS011;51813;40.666;16.602;2023-05-16T12:00:16;4.25;;;1.10;;
65230;SDS011;51813;40.666;16.602;2023-05-16T12:02:46;2.92;;;1.20;;
65230;SDS011;51813;40.666;16.602;2023-05-16T12:05:12;2.40;;;1.08;;
65230;SDS011;51813;40.666;16.602;2023-05-16T12:07:39;2.60;;;1.10;;
65230;SDS011;51813;40.666;16.602;2023-05-16T12:10:10;2.78;;;1.00;;
65230;SDS011;51813;40.666;16.602;2023-05-16T12:12:38;2.88;;;1.00;;
65230;SDS011;51813;40.666;16.602;2023-05-16T12:15:05;1.98;;;0.85;;
65230;SDS011;51813;40.666;16.602;2023-05-16T12:17:34;2.85;;;1.02;;
65230;SDS011;51813;40.666;16.602;2023-05-16T12:20:01;1.83;;;0.90;;
65230;SDS011;51813;40.666;16.602;2023-05-16T12:22:32;3.55;;;1.00;;
65230;SDS011;51813;40.666;16.602;2023-05-16T12:24:58;2.58;;;1.10;;
65230;SDS011;51813;40.666;16.602;2023-05-16T12:27:25;1.42;;;0.80;;
65230;SDS011;51813;40.666;16.602;2023-05-16T12:29:51;1.83;;;0.90;;
65230;SDS011;51813;40.666;16.602;2023-05-16T12:32:18;2.00;;;1.00;;
65230;SDS011;51813;40.666;16.602;2023-05-16T12:34:50;2.38;;;1.10;;
65230;SDS011;51813;40.666;16.602;2023-05-16T12:37:17;2.05;;;0.90;;
65230;SDS011;51813;40.666;16.602;2023-05-16T12:39:45;1.67;;;0.85;;
65230;SDS011;51813;40.666;16.602;2023-05-16T12:42:12;2.42;;;1.05;;
65230;SDS011;51813;40.666;16.602;2023-05-16T12:44:38;1.70;;;0.82;;
65230;SDS011;51813;40.666;16.602;2023-05-16T12:47:11;4.53;;;1.27;;
65230;SDS011;51813;40.666;16.602;2023-05-16T12:49:44;2.28;;;0.88;;
65230;SDS011;51813;40.666;16.602;2023-05-16T12:52:11;3.50;;;1.00;;
65230;SDS011;51813;40.666;16.602;2023-05-16T12:54:43;1.55;;;0.80;;
65230;SDS011;51813;40.666;16.602;2023-05-16T12:57:09;2.03;;;0.68;;
65230;SDS011;51813;40.666;16.602;2023-05-16T12:59:35;2.95;;;0.90;;
65230;SDS011;51813;40.666;16.602;2023-05-16T13:02:01;2.08;;;0.80;;
65230;SDS011;51813;40.666;16.602;2023-05-16T13:04:27;5.30;;;1.10;;
65230;SDS011;51813;40.666;16.602;2023-05-16T13:06:54;1.80;;;0.80;;
65230;SDS011;51813;40.666;16.602;2023-05-16T13:09:19;2.58;;;1.02;;
65230;SDS011;51813;40.666;16.602;2023-05-16T13:11:45;3.28;;;1.00;;
65230;SDS011;51813;40.666;16.602;2023-05-16T13:14:12;2.10;;;0.70;;
65230;SDS011;51813;40.666;16.602;2023-05-16T13:16:37;1.73;;;0.82;;
65230;SDS011;51813;40.666;16.602;2023-05-16T13:19:03;1.90;;;0.77;;
65230;SDS011;51813;40.666;16.602;2023-05-16T13:21:29;2.17;;;0.85;;
65230;SDS011;51813;40.666;16.602;2023-05-16T13:23:56;1.55;;;0.73;;
65230;SDS011;51813;40.666;16.602;2023-05-16T13:26:22;1.98;;;0.70;;
65230;SDS011;51813;40.666;16.602;2023-05-16T13:28:48;3.35;;;0.77;;
65230;SDS011;51813;40.666;16.602;2023-05-16T13:31:17;2.20;;;0.80;;
65230;SDS011;51813;40.666;16.602;2023-05-16T13:33:43;3.55;;;0.80;;
65230;SDS011;51813;40.666;16.602;2023-05-16T13:36:09;2.67;;;0.95;;
65230;SDS011;51813;40.666;16.602;2023-05-16T13:38:34;2.08;;;0.82;;
65230;SDS011;51813;40.666;16.602;2023-05-16T13:41:01;1.58;;;0.75;;
65230;SDS011;51813;40.666;16.602;2023-05-16T13:43:26;2.00;;;0.90;;
65230;SDS011;51813;40.666;16.602;2023-05-16T13:45:52;1.60;;;0.77;;
65230;SDS011;51813;40.666;16.602;2023-05-16T13:48:18;2.10;;;0.80;;
65230;SDS011;51813;40.666;16.602;2023-05-16T13:50:44;2.05;;;0.77;;
65230;SDS011;51813;40.666;16.602;2023-05-16T13:53:10;3.30;;;1.10;;
65230;SDS011;51813;40.666;16.602;2023-05-16T13:55:36;2.42;;;0.82;;
65230;SDS011;51813;40.666;16.602;2023-05-16T13:58:02;2.13;;;0.90;;
65230;SDS011;51813;40.666;16.602;2023-05-16T14:00:28;1.80;;;0.70;;
65230;SDS011;51813;40.666;16.602;2023-05-16T14:02:54;2.17;;;0.80;;
65230;SDS011;51813;40.666;16.602;2023-05-16T14:05:20;4.03;;;1.10;;
65230;SDS011;51813;40.666;16.602;2023-05-16T14:07:46;1.48;;;0.68;;
65230;SDS011;51813;40.666;16.602;2023-05-16T14:10:12;2.30;;;0.82;;
65230;SDS011;51813;40.666;16.602;2023-05-16T14:12:38;2.53;;;0.85;;
65230;SDS011;51813;40.666;16.602;2023-05-16T14:15:04;2.08;;;0.70;;
65230;SDS011;51813;40.666;16.602;2023-05-16T14:17:31;1.45;;;0.68;;
65230;SDS011;51813;40.666;16.602;2023-05-16T14:19:56;2.22;;;0.70;;
65230;SDS011;51813;40.666;16.602;2023-05-16T14:22:22;2.42;;;0.65;;
65230;SDS011;51813;40.666;16.602;2023-05-16T14:24:48;1.63;;;0.70;;
65230;SDS011;51813;40.666;16.602;2023-05-16T14:27:14;2.90;;;0.70;;
65230;SDS011;51813;40.666;16.602;2023-05-16T14:29:40;2.50;;;0.60;;
65230;SDS011;51813;40.666;16.602;2023-05-16T14:32:06;2.60;;;0.90;;
65230;SDS011;51813;40.666;16.602;2023-05-16T14:34:34;0.98;;;0.60;;
65230;SDS011;51813;40.666;16.602;2023-05-16T14:37:00;3.65;;;0.70;;
65230;SDS011;51813;40.666;16.602;2023-05-16T14:39:25;1.80;;;0.80;;
65230;SDS011;51813;40.666;16.602;2023-05-16T14:41:51;2.40;;;0.70;;
65230;SDS011;51813;40.666;16.602;2023-05-16T14:44:17;2.80;;;0.90;;
65230;SDS011;51813;40.666;16.602;2023-05-16T14:46:44;1.58;;;0.95;;
65230;SDS011;51813;40.666;16.602;2023-05-16T14:49:10;2.03;;;0.60;;
65230;SDS011;51813;40.666;16.602;2023-05-16T14:51:36;2.78;;;0.68;;
65230;SDS011;51813;40.666;16.602;2023-05-16T14:54:02;1.90;;;0.73;;
65230;SDS011;51813;40.666;16.602;2023-05-16T14:56:28;2.85;;;0.65;;